sensor_id;sensor_type;location;lat;lon;timestamp;P1;durP1;ratioP1;P2;durP2;ratioP2
7929;SDS011;4010;42.698;23.124;2024-02-28T00:01:00;10.23;;;6.27;;
7929;SDS011;4010;42.698;23.124;2024-02-28T00:03:28;7.03;;;5.00;;
7929;SDS011;4010;42.698;23.124;2024-02-28T00:05:56;8.70;;;5.40;;
7929;SDS011;4010;42.698;23.124;2024-02-28T00:08:23;7.20;;;5.40;;
7929;SDS011;4010;42.698;23.124;2024-02-28T00:10:50;8.63;;;5.23;;
7929;SDS011;4010;42.698;23.124;2024-02-28T00:13:17;7.43;;;5.53;;
7929;SDS011;4010;42.698;23.124;2024-02-28T00:15:45;7.27;;;5.50;;
7929;SDS011;4010;42.698;23.124;2024-02-28T00:18:12;10.43;;;5.63;;
7929;SDS011;4010;42.698;23.124;2024-02-28T00:20:40;13.90;;;7.73;;
7929;SDS011;4010;42.698;23.124;2024-02-28T00:23:06;13.27;;;8.30;;
7929;SDS011;4010;42.698;23.124;2024-02-28T00:25:33;14.33;;;8.37;;
7929;SDS011;4010;42.698;23.124;2024-02-28T00:28:00;15.93;;;7.97;;
7929;SDS011;4010;42.698;23.124;2024-02-28T00:30:27;17.15;;;10.90;;
7929;SDS011;4010;42.698;23.124;2024-02-28T00:32:53;20.53;;;9.63;;
7929;SDS011;4010;42.698;23.124;2024-02-28T00:35:20;21.50;;;12.57;;
7929;SDS011;4010;42.698;23.124;2024-02-28T00:37:48;21.60;;;12.43;;
7929;SDS011;4010;42.698;23.124;2024-02-28T00:40:15;13.37;;;8.20;;
7929;SDS011;4010;42.698;23.124;2024-02-28T00:42:42;18.80;;;9.80;;
7929;SDS011;4010;42.698;23.124;2024-02-28T00:45:08;20.73;;;10.07;;
7929;SDS011;4010;42.698;23.124;2024-02-28T00:47:35;19.30;;;9.17;;
7929;SDS011;4010;42.698;23.124;2024-02-28T00:50:03;11.30;;;7.93;;
7929;SDS011;4010;42.698;23.124;2024-02-28T00:52:30;16.77;;;7.27;;
7929;SDS011;4010;42.698;23.124;2024-02-28T00:54:58;10.70;;;7.50;;
7929;SDS011;4010;42.698;23.124;2024-02-28T00:57:25;11.67;;;6.53;;
7929;SDS011;4010;42.698;23.124;2024-02-28T00:59:52;13.10;;;9.57;;
7929;SDS011;4010;42.698;23.124;2024-02-28T01:02:20;13.63;;;8.80;;
7929;SDS011;4010;42.698;23.124;2024-02-28T01:04:47;11.03;;;6.17;;
7929;SDS011;4010;42.698;23.124;2024-02-28T01:07:13;9.97;;;5.87;;
7929;SDS011;4010;42.698;23.124;2024-02-28T01:09:40;9.50;;;5.20;;
7929;SDS011;4010;42.698;23.124;2024-02-28T01:12:08;9.80;;;5.67;;
7929;SDS011;4010;42.698;23.124;2024-02-28T01:14:35;7.33;;;5.93;;
7929;SDS011;4010;42.698;23.124;2024-02-28T01:17:02;8.37;;;6.33;;
7929;SDS011;4010;42.698;23.124;2024-02-28T01:19:28;7.30;;;5.47;;
7929;SDS011;4010;42.698;23.124;2024-02-28T01:21:56;10.07;;;5.67;;
7929;SDS011;4010;42.698;23.124;2024-02-28T01:24:23;9.33;;;5.03;;
7929;SDS011;4010;42.698;23.124;2024-02-28T01:26:50;10.13;;;5.73;;
7929;SDS011;4010;42.698;23.124;2024-02-28T01:29:18;8.83;;;5.67;;
7929;SDS011;4010;42.698;23.124;2024-02-28T01:31:45;10.00;;;6.13;;
7929;SDS011;4010;42.698;23.124;2024-02-28T01:34:11;10.40;;;6.30;;
7929;SDS011;4010;42.698;23.124;2024-02-28T01:36:38;11.17;;;6.83;;
7929;SDS011;4010;42.698;23.124;2024-02-28T01:39:05;10.93;;;5.83;;
7929;SDS011;4010;42.698;23.124;2024-02-28T01:41:31;12.33;;;6.37;;
7929;SDS011;4010;42.698;23.124;2024-02-28T01:43:58;10.43;;;6.10;;
7929;SDS011;4010;42.698;23.124;2024-02-28T01:46:27;12.07;;;6.53;;
7929;SDS011;4010;42.698;23.124;2024-02-28T01:48:56;8.70;;;6.13;;
7929;SDS011;4010;42.698;23.124;2024-02-28T01:51:23;8.07;;;6.20;;
7929;SDS011;4010;42.698;23.124;2024-02-28T01:53:52;13.57;;;6.93;;
7929;SDS011;4010;42.698;23.124;2024-02-28T01:56:20;9.30;;;6.33;;
7929;SDS011;4010;42.698;23.124;2024-02-28T01:58:49;9.47;;;7.23;;
7929;SDS011;4010;42.698;23.124;2024-02-28T02:01:16;12.23;;;7.23;;
7929;SDS011;4010;42.698;23.124;2024-02-28T02:03:45;18.47;;;9.80;;
7929;SDS011;4010;42.698;23.124;2024-02-28T02:06:12;16.20;;;9.03;;
7929;SDS011;4010;42.698;23.124;2024-02-28T02:08:39;10.77;;;8.30;;
7929;SDS011;4010;42.698;23.124;2024-02-28T02:11:07;11.37;;;7.37;;
7929;SDS011;4010;42.698;23.124;2024-02-28T02:13:34;12.60;;;8.00;;
7929;SDS011;4010;42.698;23.124;2024-02-28T02:16:01;12.10;;;8.07;;
7929;SDS011;4010;42.698;23.124;2024-02-28T02:18:28;15.37;;;8.33;;
7929;SDS011;4010;42.698;23.124;2024-02-28T02:20:58;9.93;;;7.33;;
7929;SDS011;4010;42.698;23.124;2024-02-28T02:23:30;10.80;;;7.43;;
7929;SDS011;4010;42.698;23.124;2024-02-28T02:25:57;14.43;;;6.93;;
7929;SDS011;4010;42.698;23.124;2024-02-28T02:28:23;10.23;;;6.50;;
7929;SDS011;4010;42.698;23.124;2024-02-28T02:30:50;9.93;;;6.60;;
7929;SDS011;4010;42.698;23.124;2024-02-28T02:33:17;10.80;;;6.27;;
7929;SDS011;4010;42.698;23.124;2024-02-28T02:35:43;7.47;;;5.43;;
7929;SDS011;4010;42.698;23.124;2024-02-28T02:38:10;7.00;;;5.00;;
7929;SDS011;4010;42.698;23.124;2024-02-28T02:40:38;8.20;;;6.10;;
7929;SDS011;4010;42.698;23.124;2024-02-28T02:43:05;12.50;;;7.03;;
7929;SDS011;4010;42.698;23.124;2024-02-28T02:45:31;7.63;;;5.77;;
7929;SDS011;4010;42.698;23.124;2024-02-28T02:47:58;8.10;;;5.90;;
7929;SDS011;4010;42.698;23.124;2024-02-28T02:50:25;9.27;;;6.40;;
7929;SDS011;4010;42.698;23.124;2024-02-28T02:52:52;11.77;;;6.57;;
7929;SDS011;4010;42.698;23.124;2024-02-28T02:55:18;10.87;;;6.93;;
7929;SDS011;4010;42.698;23.124;2024-02-28T02:57:46;10.63;;;6.00;;
7929;SDS011;4010;42.698;23.124;2024-02-28T03:00:13;10.67;;;6.87;;
7929;SDS011;4010;42.698;23.124;2024-02-28T03:02:40;10.50;;;6.30;;
7929;SDS011;4010;42.698;23.124;2024-02-28T03:05:07;9.83;;;6.43;;
7929;SDS011;4010;42.698;23.124;2024-02-28T03:07:34;9.63;;;6.43;;
7929;SDS011;4010;42.698;23.124;2024-02-28T03:10:01;10.20;;;6.17;;
7929;SDS011;4010;42.698;23.124;2024-02-28T03:12:28;14.40;;;6.53;;
7929;SDS011;4010;42.698;23.124;2024-02-28T03:14:56;9.17;;;6.23;;
7929;SDS011;4010;42.698;23.124;2024-02-28T03:17:23;10.53;;;6.33;;
7929;SDS011;4010;42.698;23.124;2024-02-28T03:19:50;10.67;;;6.60;;
7929;SDS011;4010;42.698;23.124;2024-02-28T03:22:16;10.17;;;6.43;;
7929;SDS011;4010;42.698;23.124;2024-02-28T03:24:43;8.17;;;5.73;;
7929;SDS011;4010;42.698;23.124;2024-02-28T03:27:10;11.33;;;6.13;;
7929;SDS011;4010;42.698;23.124;2024-02-28T03:29:36;9.07;;;6.03;;
7929;SDS011;4010;42.698;23.124;2024-02-28T03:32:05;10.83;;;6.80;;
7929;SDS011;4010;42.698;23.124;2024-02-28T03:34:32;10.27;;;6.60;;
7929;SDS011;4010;42.698;23.124;2024-02-28T03:36:59;14.70;;;7.23;;
7929;SDS011;4010;42.698;23.124;2024-02-28T03:39:26;16.27;;;10.57;;
7929;SDS011;4010;42.698;23.124;2024-02-28T03:41:53;21.20;;;15.07;;
7929;SDS011;4010;42.698;23.124;2024-02-28T03:44:19;12.60;;;8.57;;
7929;SDS011;4010;42.698;23.124;2024-02-28T03:46:46;15.83;;;8.23;;
7929;SDS011;4010;42.698;23.124;2024-02-28T03:49:14;12.13;;;8.07;;
7929;SDS011;4010;42.698;23.124;2024-02-28T03:51:41;12.00;;;8.13;;
7929;SDS011;4010;42.698;23.124;2024-02-28T03:54:08;12.47;;;7.90;;
7929;SDS011;4010;42.698;23.124;2024-02-28T03:56:35;15.90;;;9.23;;
7929;SDS011;4010;42.698;23.124;2024-02-28T03:59:02;14.30;;;8.80;;
7929;SDS011;4010;42.698;23.124;2024-02-28T04:01:29;18.80;;;9.10;;
7929;SDS011;4010;42.698;23.124;2024-02-28T04:03:56;12.07;;;7.90;;
7929;SDS011;4010;42.698;23.124;2024-02-28T04:06:24;14.80;;;8.17;;
7929;SDS011;4010;42.698;23.124;2024-02-28T04:08:51;14.63;;;8.50;;
7929;SDS011;4010;42.698;23.124;2024-02-28T04:11:18;10.40;;;7.70;;
7929;SDS011;4010;42.698;23.124;2024-02-28T04:13:45;12.77;;;8.50;;
7929;SDS011;4010;42.698;23.124;2024-02-28T04:16:12;11.57;;;7.80;;
7929;SDS011;4010;42.698;23.124;2024-02-28T04:18:39;11.73;;;8.43;;
7929;SDS011;4010;42.698;23.124;2024-02-28T04:21:06;12.57;;;7.77;;
7929;SDS011;4010;42.698;23.124;2024-02-28T04:23:34;15.57;;;9.03;;
7929;SDS011;4010;42.698;23.124;2024-02-28T04:26:00;11.97;;;8.63;;
7929;SDS011;4010;42.698;23.124;2024-02-28T04:28:28;13.67;;;8.10;;
7929;SDS011;4010;42.698;23.124;2024-02-28T04:30:55;15.37;;;9.33;;
7929;SDS011;4010;42.698;23.124;2024-02-28T04:33:22;15.23;;;9.60;;
7929;SDS011;4010;42.698;23.124;2024-02-28T04:35:49;15.23;;;8.53;;
7929;SDS011;4010;42.698;23.124;2024-02-28T04:38:16;17.33;;;9.20;;
7929;SDS011;4010;42.698;23.124;2024-02-28T04:40:44;14.43;;;9.50;;
7929;SDS011;4010;42.698;23.124;2024-02-28T04:43:10;18.80;;;11.70;;
7929;SDS011;4010;42.698;23.124;2024-02-28T04:45:37;20.57;;;11.30;;
7929;SDS011;4010;42.698;23.124;2024-02-28T04:48:04;19.40;;;11.73;;
7929;SDS011;4010;42.698;23.124;2024-02-28T04:50:32;20.60;;;11.13;;
7929;SDS011;4010;42.698;23.124;2024-02-28T04:52:58;17.13;;;10.97;;
7929;SDS011;4010;42.698;23.124;2024-02-28T04:55:25;21.70;;;11.10;;
7929;SDS011;4010;42.698;23.124;2024-02-28T04:57:53;15.57;;;10.83;;
7929;SDS011;4010;42.698;23.124;2024-02-28T05:00:20;18.73;;;10.67;;
7929;SDS011;4010;42.698;23.124;2024-02-28T05:02:47;17.47;;;10.80;;
7929;SDS011;4010;42.698;23.124;2024-02-28T05:05:13;16.80;;;11.00;;
7929;SDS011;4010;42.698;23.124;2024-02-28T05:07:40;19.77;;;10.87;;
7929;SDS011;4010;42.698;23.124;2024-02-28T05:10:07;20.10;;;11.50;;
7929;SDS011;4010;42.698;23.124;2024-02-28T05:12:34;14.83;;;9.67;;
7929;SDS011;4010;42.698;23.124;2024-02-28T05:15:02;13.27;;;9.03;;
7929;SDS011;4010;42.698;23.124;2024-02-28T05:17:31;16.87;;;8.90;;
7929;SDS011;4010;42.698;23.124;2024-02-28T05:19:58;15.10;;;9.10;;
7929;SDS011;4010;42.698;23.124;2024-02-28T05:22:25;14.43;;;10.20;;
7929;SDS011;4010;42.698;23.124;2024-02-28T05:24:51;17.93;;;10.33;;
7929;SDS011;4010;42.698;23.124;2024-02-28T05:27:18;16.07;;;9.27;;
7929;SDS011;4010;42.698;23.124;2024-02-28T05:29:45;17.47;;;11.30;;
7929;SDS011;4010;42.698;23.124;2024-02-28T05:32:13;19.73;;;11.67;;
7929;SDS011;4010;42.698;23.124;2024-02-28T05:34:42;26.63;;;13.53;;
7929;SDS011;4010;42.698;23.124;2024-02-28T05:37:07;20.10;;;12.30;;
7929;SDS011;4010;42.698;23.124;2024-02-28T05:39:34;21.90;;;12.87;;
7929;SDS011;4010;42.698;23.124;2024-02-28T05:42:01;24.20;;;13.23;;
7929;SDS011;4010;42.698;23.124;2024-02-28T05:44:28;19.07;;;12.77;;
7929;SDS011;4010;42.698;23.124;2024-02-28T05:46:55;18.57;;;11.60;;
7929;SDS011;4010;42.698;23.124;2024-02-28T05:49:23;21.53;;;12.77;;
7929;SDS011;4010;42.698;23.124;2024-02-28T05:51:49;19.10;;;11.57;;
7929;SDS011;4010;42.698;23.124;2024-02-28T05:54:16;19.93;;;13.27;;
7929;SDS011;4010;42.698;23.124;2024-02-28T05:56:44;25.43;;;14.97;;
7929;SDS011;4010;42.698;23.124;2024-02-28T05:59:10;20.60;;;12.40;;
7929;SDS011;4010;42.698;23.124;2024-02-28T06:01:37;22.23;;;12.77;;
7929;SDS011;4010;42.698;23.124;2024-02-28T06:04:05;20.03;;;12.07;;
7929;SDS011;4010;42.698;23.124;2024-02-28T06:06:33;18.53;;;11.20;;
7929;SDS011;4010;42.698;23.124;2024-02-28T06:09:00;23.13;;;12.33;;
7929;SDS011;4010;42.698;23.124;2024-02-28T06:11:27;19.10;;;10.73;;
7929;SDS011;4010;42.698;23.124;2024-02-28T06:13:54;17.07;;;11.67;;
7929;SDS011;4010;42.698;23.124;2024-02-28T06:16:21;19.97;;;12.53;;
7929;SDS011;4010;42.698;23.124;2024-02-28T06:18:48;19.47;;;12.00;;
7929;SDS011;4010;42.698;23.124;2024-02-28T06:21:15;22.07;;;11.90;;
7929;SDS011;4010;42.698;23.124;2024-02-28T06:23:43;17.93;;;11.37;;
7929;SDS011;4010;42.698;23.124;2024-02-28T06:26:10;21.40;;;12.80;;
7929;SDS011;4010;42.698;23.124;2024-02-28T06:28:41;29.80;;;18.70;;
7929;SDS011;4010;42.698;23.124;2024-02-28T06:31:11;21.60;;;14.03;;
7929;SDS011;4010;42.698;23.124;2024-02-28T06:33:39;22.30;;;15.00;;
7929;SDS011;4010;42.698;23.124;2024-02-28T06:36:06;22.60;;;14.90;;
7929;SDS011;4010;42.698;23.124;2024-02-28T06:38:33;19.73;;;13.50;;
7929;SDS011;4010;42.698;23.124;2024-02-28T06:41:02;23.20;;;14.40;;
7929;SDS011;4010;42.698;23.124;2024-02-28T06:43:29;20.60;;;13.00;;
7929;SDS011;4010;42.698;23.124;2024-02-28T06:45:56;18.63;;;14.20;;
7929;SDS011;4010;42.698;23.124;2024-02-28T06:48:22;20.27;;;13.13;;
7929;SDS011;4010;42.698;23.124;2024-02-28T06:50:49;21.73;;;14.30;;
7929;SDS011;4010;42.698;23.124;2024-02-28T06:53:16;18.40;;;12.60;;
7929;SDS011;4010;42.698;23.124;2024-02-28T06:55:43;22.03;;;14.10;;
7929;SDS011;4010;42.698;23.124;2024-02-28T06:58:12;18.87;;;12.90;;
7929;SDS011;4010;42.698;23.124;2024-02-28T07:00:38;18.87;;;13.10;;
7929;SDS011;4010;42.698;23.124;2024-02-28T07:03:05;20.00;;;13.53;;
7929;SDS011;4010;42.698;23.124;2024-02-28T07:05:32;21.20;;;13.73;;
7929;SDS011;4010;42.698;23.124;2024-02-28T07:07:59;18.27;;;13.23;;
7929;SDS011;4010;42.698;23.124;2024-02-28T07:10:26;20.43;;;13.97;;
7929;SDS011;4010;42.698;23.124;2024-02-28T07:12:53;18.23;;;12.97;;
7929;SDS011;4010;42.698;23.124;2024-02-28T07:15:21;17.73;;;12.77;;
7929;SDS011;4010;42.698;23.124;2024-02-28T07:17:47;17.67;;;11.90;;
7929;SDS011;4010;42.698;23.124;2024-02-28T07:20:14;16.27;;;12.70;;
7929;SDS011;4010;42.698;23.124;2024-02-28T07:22:42;18.77;;;12.83;;
7929;SDS011;4010;42.698;23.124;2024-02-28T07:25:09;19.40;;;12.70;;
7929;SDS011;4010;42.698;23.124;2024-02-28T07:27:35;19.27;;;12.60;;
7929;SDS011;4010;42.698;23.124;2024-02-28T07:30:02;18.43;;;12.10;;
7929;SDS011;4010;42.698;23.124;2024-02-28T07:32:31;19.87;;;13.50;;
7929;SDS011;4010;42.698;23.124;2024-02-28T07:35:00;22.50;;;14.03;;
7929;SDS011;4010;42.698;23.124;2024-02-28T07:37:26;18.33;;;12.13;;
7929;SDS011;4010;42.698;23.124;2024-02-28T07:39:53;16.83;;;12.63;;
7929;SDS011;4010;42.698;23.124;2024-02-28T07:42:20;16.27;;;11.57;;
7929;SDS011;4010;42.698;23.124;2024-02-28T07:44:47;16.73;;;12.50;;
7929;SDS011;4010;42.698;23.124;2024-02-28T07:47:14;17.93;;;12.43;;
7929;SDS011;4010;42.698;23.124;2024-02-28T07:49:42;15.73;;;11.90;;
7929;SDS011;4010;42.698;23.124;2024-02-28T07:52:09;17.17;;;12.73;;
7929;SDS011;4010;42.698;23.124;2024-02-28T07:54:36;14.43;;;9.83;;
7929;SDS011;4010;42.698;23.124;2024-02-28T07:57:03;14.03;;;10.43;;
7929;SDS011;4010;42.698;23.124;2024-02-28T07:59:38;14.83;;;10.70;;
7929;SDS011;4010;42.698;23.124;2024-02-28T08:02:05;16.53;;;10.40;;
7929;SDS011;4010;42.698;23.124;2024-02-28T08:04:32;14.53;;;10.83;;
7929;SDS011;4010;42.698;23.124;2024-02-28T08:07:01;14.77;;;11.07;;
7929;SDS011;4010;42.698;23.124;2024-02-28T08:09:28;15.00;;;10.13;;
7929;SDS011;4010;42.698;23.124;2024-02-28T08:11:55;13.53;;;11.23;;
7929;SDS011;4010;42.698;23.124;2024-02-28T08:14:23;13.83;;;10.93;;
7929;SDS011;4010;42.698;23.124;2024-02-28T08:16:50;15.93;;;11.57;;
7929;SDS011;4010;42.698;23.124;2024-02-28T08:19:16;14.13;;;11.20;;
7929;SDS011;4010;42.698;23.124;2024-02-28T08:21:43;18.10;;;12.10;;
7929;SDS011;4010;42.698;23.124;2024-02-28T08:24:12;14.37;;;11.93;;
7929;SDS011;4010;42.698;23.124;2024-02-28T08:26:39;17.07;;;12.07;;
7929;SDS011;4010;42.698;23.124;2024-02-28T08:29:07;16.83;;;12.23;;
7929;SDS011;4010;42.698;23.124;2024-02-28T08:31:39;18.07;;;12.57;;
7929;SDS011;4010;42.698;23.124;2024-02-28T08:34:06;15.27;;;11.83;;
7929;SDS011;4010;42.698;23.124;2024-02-28T08:36:33;16.20;;;12.50;;
7929;SDS011;4010;42.698;23.124;2024-02-28T08:38:59;18.77;;;12.47;;
7929;SDS011;4010;42.698;23.124;2024-02-28T08:41:27;16.80;;;12.40;;
7929;SDS011;4010;42.698;23.124;2024-02-28T08:43:54;17.50;;;12.57;;
7929;SDS011;4010;42.698;23.124;2024-02-28T08:46:23;17.50;;;12.30;;
7929;SDS011;4010;42.698;23.124;2024-02-28T08:48:50;14.90;;;12.17;;
7929;SDS011;4010;42.698;23.124;2024-02-28T08:51:16;15.87;;;12.90;;
7929;SDS011;4010;42.698;23.124;2024-02-28T08:53:43;16.90;;;12.20;;
7929;SDS011;4010;42.698;23.124;2024-02-28T08:56:10;17.23;;;13.13;;
7929;SDS011;4010;42.698;23.124;2024-02-28T08:58:38;15.80;;;12.60;;
7929;SDS011;4010;42.698;23.124;2024-02-28T09:01:05;17.17;;;12.70;;
7929;SDS011;4010;42.698;23.124;2024-02-28T09:03:31;19.73;;;12.60;;
7929;SDS011;4010;42.698;23.124;2024-02-28T09:05:58;19.23;;;13.07;;
7929;SDS011;4010;42.698;23.124;2024-02-28T09:08:25;18.17;;;13.70;;
7929;SDS011;4010;42.698;23.124;2024-02-28T09:10:52;19.40;;;13.60;;
7929;SDS011;4010;42.698;23.124;2024-02-28T09:13:18;20.77;;;13.93;;
7929;SDS011;4010;42.698;23.124;2024-02-28T09:15:46;17.87;;;13.27;;
7929;SDS011;4010;42.698;23.124;2024-02-28T09:18:13;19.37;;;14.00;;
7929;SDS011;4010;42.698;23.124;2024-02-28T09:20:40;17.03;;;13.83;;
7929;SDS011;4010;42.698;23.124;2024-02-28T09:23:06;25.30;;;14.53;;
7929;SDS011;4010;42.698;23.124;2024-02-28T09:25:33;22.03;;;14.90;;
7929;SDS011;4010;42.698;23.124;2024-02-28T09:28:00;21.23;;;14.33;;
7929;SDS011;4010;42.698;23.124;2024-02-28T09:30:28;20.53;;;14.00;;
7929;SDS011;4010;42.698;23.124;2024-02-28T09:32:56;20.63;;;14.13;;
7929;SDS011;4010;42.698;23.124;2024-02-28T09:35:23;18.73;;;14.23;;
7929;SDS011;4010;42.698;23.124;2024-02-28T09:37:50;19.50;;;15.13;;
7929;SDS011;4010;42.698;23.124;2024-02-28T09:40:17;20.23;;;15.23;;
7929;SDS011;4010;42.698;23.124;2024-02-28T09:42:46;20.90;;;15.23;;
7929;SDS011;4010;42.698;23.124;2024-02-28T09:45:18;24.47;;;15.80;;
7929;SDS011;4010;42.698;23.124;2024-02-28T09:47:47;19.37;;;14.93;;
7929;SDS011;4010;42.698;23.124;2024-02-28T09:50:16;17.17;;;13.67;;
7929;SDS011;4010;42.698;23.124;2024-02-28T09:52:44;20.33;;;14.23;;
7929;SDS011;4010;42.698;23.124;2024-02-28T09:55:11;17.70;;;14.10;;
7929;SDS011;4010;42.698;23.124;2024-02-28T09:57:37;21.00;;;15.53;;
7929;SDS011;4010;42.698;23.124;2024-02-28T10:00:05;27.30;;;16.27;;
7929;SDS011;4010;42.698;23.124;2024-02-28T10:02:34;21.43;;;15.80;;
7929;SDS011;4010;42.698;23.124;2024-02-28T10:05:05;23.07;;;15.90;;
7929;SDS011;4010;42.698;23.124;2024-02-28T10:07:35;22.53;;;15.63;;
7929;SDS011;4010;42.698;23.124;2024-02-28T10:10:01;24.13;;;15.47;;
7929;SDS011;4010;42.698;23.124;2024-02-28T10:12:29;23.17;;;16.17;;
7929;SDS011;4010;42.698;23.124;2024-02-28T10:14:55;22.80;;;16.17;;
7929;SDS011;4010;42.698;23.124;2024-02-28T10:17:22;27.17;;;16.00;;
7929;SDS011;4010;42.698;23.124;2024-02-28T10:19:51;20.53;;;15.30;;
7929;SDS011;4010;42.698;23.124;2024-02-28T10:22:18;26.93;;;15.90;;
7929;SDS011;4010;42.698;23.124;2024-02-28T10:24:46;20.27;;;14.87;;
7929;SDS011;4010;42.698;23.124;2024-02-28T10:27:15;21.70;;;16.33;;
7929;SDS011;4010;42.698;23.124;2024-02-28T10:29:44;18.80;;;15.27;;
7929;SDS011;4010;42.698;23.124;2024-02-28T10:32:11;21.63;;;15.87;;
7929;SDS011;4010;42.698;23.124;2024-02-28T10:34:38;21.90;;;16.80;;
7929;SDS011;4010;42.698;23.124;2024-02-28T10:37:05;22.87;;;16.07;;
7929;SDS011;4010;42.698;23.124;2024-02-28T10:39:33;24.30;;;16.00;;
7929;SDS011;4010;42.698;23.124;2024-02-28T10:42:02;20.90;;;15.60;;
7929;SDS011;4010;42.698;23.124;2024-02-28T10:44:30;27.67;;;16.90;;
7929;SDS011;4010;42.698;23.124;2024-02-28T10:46:59;21.20;;;15.40;;
7929;SDS011;4010;42.698;23.124;2024-02-28T10:49:27;19.63;;;14.80;;
7929;SDS011;4010;42.698;23.124;2024-02-28T10:51:55;24.10;;;17.98;;
7929;SDS011;4010;42.698;23.124;2024-02-28T10:54:24;20.47;;;15.27;;
7929;SDS011;4010;42.698;23.124;2024-02-28T10:56:51;20.57;;;15.07;;
7929;SDS011;4010;42.698;23.124;2024-02-28T10:59:21;17.37;;;13.83;;
7929;SDS011;4010;42.698;23.124;2024-02-28T11:01:51;16.80;;;12.60;;
7929;SDS011;4010;42.698;23.124;2024-02-28T11:04:18;16.13;;;11.10;;
7929;SDS011;4010;42.698;23.124;2024-02-28T11:06:48;17.77;;;11.97;;
7929;SDS011;4010;42.698;23.124;2024-02-28T11:09:19;19.07;;;12.50;;
7929;SDS011;4010;42.698;23.124;2024-02-28T11:11:48;16.07;;;11.97;;
7929;SDS011;4010;42.698;23.124;2024-02-28T11:14:16;14.87;;;10.83;;
7929;SDS011;4010;42.698;23.124;2024-02-28T11:16:44;15.73;;;11.73;;
7929;SDS011;4010;42.698;23.124;2024-02-28T11:19:18;16.20;;;11.27;;
7929;SDS011;4010;42.698;23.124;2024-02-28T11:21:46;11.40;;;9.37;;
7929;SDS011;4010;42.698;23.124;2024-02-28T11:24:22;12.17;;;9.37;;
7929;SDS011;4010;42.698;23.124;2024-02-28T11:26:50;14.83;;;9.57;;
7929;SDS011;4010;42.698;23.124;2024-02-28T11:29:22;13.60;;;9.13;;
7929;SDS011;4010;42.698;23.124;2024-02-28T11:31:51;13.90;;;10.40;;
7929;SDS011;4010;42.698;23.124;2024-02-28T11:34:18;14.30;;;10.10;;
7929;SDS011;4010;42.698;23.124;2024-02-28T11:36:46;8.97;;;6.40;;
7929;SDS011;4010;42.698;23.124;2024-02-28T11:39:14;4.07;;;2.90;;
7929;SDS011;4010;42.698;23.124;2024-02-28T11:41:41;5.70;;;2.43;;
7929;SDS011;4010;42.698;23.124;2024-02-28T11:44:11;4.77;;;2.70;;
7929;SDS011;4010;42.698;23.124;2024-02-28T11:46:38;4.70;;;2.30;;
7929;SDS011;4010;42.698;23.124;2024-02-28T11:49:10;4.97;;;2.00;;
7929;SDS011;4010;42.698;23.124;2024-02-28T11:51:37;4.93;;;2.20;;
7929;SDS011;4010;42.698;23.124;2024-02-28T11:54:03;4.37;;;1.63;;
7929;SDS011;4010;42.698;23.124;2024-02-28T11:56:31;5.50;;;1.97;;
7929;SDS011;4010;42.698;23.124;2024-02-28T11:58:58;6.33;;;2.63;;
7929;SDS011;4010;42.698;23.124;2024-02-28T12:01:34;2.67;;;1.43;;
7929;SDS011;4010;42.698;23.124;2024-02-28T12:04:02;11.00;;;7.03;;
7929;SDS011;4010;42.698;23.124;2024-02-28T12:06:32;4.93;;;2.83;;
7929;SDS011;4010;42.698;23.124;2024-02-28T12:08:59;6.60;;;3.72;;
7929;SDS011;4010;42.698;23.124;2024-02-28T12:11:26;4.93;;;3.10;;
7929;SDS011;4010;42.698;23.124;2024-02-28T12:13:55;10.00;;;3.23;;
7929;SDS011;4010;42.698;23.124;2024-02-28T12:16:22;7.23;;;2.13;;
7929;SDS011;4010;42.698;23.124;2024-02-28T12:18:50;6.33;;;2.50;;
7929;SDS011;4010;42.698;23.124;2024-02-28T12:21:17;2.93;;;1.93;;
7929;SDS011;4010;42.698;23.124;2024-02-28T12:23:46;3.43;;;1.83;;
7929;SDS011;4010;42.698;23.124;2024-02-28T12:26:14;3.57;;;2.07;;
7929;SDS011;4010;42.698;23.124;2024-02-28T12:28:42;4.60;;;2.27;;
7929;SDS011;4010;42.698;23.124;2024-02-28T12:31:09;3.83;;;2.33;;
7929;SDS011;4010;42.698;23.124;2024-02-28T12:33:37;6.10;;;2.17;;
7929;SDS011;4010;42.698;23.124;2024-02-28T12:36:03;3.93;;;2.80;;
7929;SDS011;4010;42.698;23.124;2024-02-28T12:38:31;2.20;;;1.70;;
7929;SDS011;4010;42.698;23.124;2024-02-28T12:41:01;6.17;;;3.30;;
7929;SDS011;4010;42.698;23.124;2024-02-28T12:43:29;3.47;;;2.33;;
7929;SDS011;4010;42.698;23.124;2024-02-28T12:45:57;4.43;;;1.90;;
7929;SDS011;4010;42.698;23.124;2024-02-28T12:48:24;3.80;;;2.10;;
7929;SDS011;4010;42.698;23.124;2024-02-28T12:50:50;6.10;;;4.00;;
7929;SDS011;4010;42.698;23.124;2024-02-28T12:53:17;7.80;;;5.03;;
7929;SDS011;4010;42.698;23.124;2024-02-28T12:55:44;7.70;;;5.13;;
7929;SDS011;4010;42.698;23.124;2024-02-28T12:58:12;9.20;;;4.33;;
7929;SDS011;4010;42.698;23.124;2024-02-28T13:00:39;3.20;;;2.20;;
7929;SDS011;4010;42.698;23.124;2024-02-28T13:03:06;8.13;;;4.50;;
7929;SDS011;4010;42.698;23.124;2024-02-28T13:05:32;8.77;;;4.37;;
7929;SDS011;4010;42.698;23.124;2024-02-28T13:07:59;9.33;;;4.90;;
7929;SDS011;4010;42.698;23.124;2024-02-28T13:10:26;7.63;;;4.90;;
7929;SDS011;4010;42.698;23.124;2024-02-28T13:12:53;6.80;;;4.17;;
7929;SDS011;4010;42.698;23.124;2024-02-28T13:15:21;5.73;;;4.33;;
7929;SDS011;4010;42.698;23.124;2024-02-28T13:17:48;7.37;;;4.53;;
7929;SDS011;4010;42.698;23.124;2024-02-28T13:20:15;4.80;;;4.30;;
7929;SDS011;4010;42.698;23.124;2024-02-28T13:22:42;6.10;;;4.63;;
7929;SDS011;4010;42.698;23.124;2024-02-28T13:25:09;7.77;;;4.13;;
7929;SDS011;4010;42.698;23.124;2024-02-28T13:27:39;6.23;;;4.37;;
7929;SDS011;4010;42.698;23.124;2024-02-28T13:30:06;8.53;;;4.53;;
7929;SDS011;4010;42.698;23.124;2024-02-28T13:32:35;5.30;;;4.37;;
7929;SDS011;4010;42.698;23.124;2024-02-28T13:35:01;7.17;;;4.50;;
7929;SDS011;4010;42.698;23.124;2024-02-28T13:37:28;4.97;;;3.87;;
7929;SDS011;4010;42.698;23.124;2024-02-28T13:39:56;6.27;;;3.90;;
7929;SDS011;4010;42.698;23.124;2024-02-28T13:42:23;7.40;;;4.13;;
7929;SDS011;4010;42.698;23.124;2024-02-28T13:44:50;9.90;;;4.13;;
7929;SDS011;4010;42.698;23.124;2024-02-28T13:47:17;6.70;;;4.60;;
7929;SDS011;4010;42.698;23.124;2024-02-28T13:49:45;7.30;;;4.43;;
7929;SDS011;4010;42.698;23.124;2024-02-28T13:52:12;4.40;;;3.93;;
7929;SDS011;4010;42.698;23.124;2024-02-28T13:54:39;6.83;;;4.17;;
7929;SDS011;4010;42.698;23.124;2024-02-28T13:57:06;5.73;;;3.93;;
7929;SDS011;4010;42.698;23.124;2024-02-28T13:59:33;5.17;;;4.07;;
7929;SDS011;4010;42.698;23.124;2024-02-28T14:02:00;8.53;;;4.60;;
7929;SDS011;4010;42.698;23.124;2024-02-28T14:04:27;6.13;;;5.00;;
7929;SDS011;4010;42.698;23.124;2024-02-28T14:06:55;7.33;;;4.70;;
7929;SDS011;4010;42.698;23.124;2024-02-28T14:09:21;7.87;;;4.53;;
7929;SDS011;4010;42.698;23.124;2024-02-28T14:11:48;5.70;;;4.77;;
7929;SDS011;4010;42.698;23.124;2024-02-28T14:14:15;8.37;;;5.83;;
7929;SDS011;4010;42.698;23.124;2024-02-28T14:16:42;6.77;;;5.63;;
7929;SDS011;4010;42.698;23.124;2024-02-28T14:19:09;7.20;;;5.73;;
7929;SDS011;4010;42.698;23.124;2024-02-28T14:21:36;7.43;;;6.33;;
7929;SDS011;4010;42.698;23.124;2024-02-28T14:24:04;7.77;;;6.07;;
7929;SDS011;4010;42.698;23.124;2024-02-28T14:26:31;9.50;;;6.17;;
7929;SDS011;4010;42.698;23.124;2024-02-28T14:28:58;8.23;;;6.10;;
7929;SDS011;4010;42.698;23.124;2024-02-28T14:31:24;9.70;;;6.33;;
7929;SDS011;4010;42.698;23.124;2024-02-28T14:33:51;8.77;;;5.53;;
7929;SDS011;4010;42.698;23.124;2024-02-28T14:36:19;8.77;;;6.17;;
7929;SDS011;4010;42.698;23.124;2024-02-28T14:38:46;7.97;;;6.10;;
7929;SDS011;4010;42.698;23.124;2024-02-28T14:41:14;6.57;;;5.80;;
7929;SDS011;4010;42.698;23.124;2024-02-28T14:43:41;13.13;;;5.40;;
7929;SDS011;4010;42.698;23.124;2024-02-28T14:46:08;7.23;;;5.63;;